Toyofukumaru — JD2177 — position and weather

sailwx.info

Track history (hours):
 
Tides and Currents Weather Stations Pressure Air Temp Water Temp Dewpoint Dewpoint Depression Visibility Wind Speed Wind Dir Waves Ship Positions

Toyofukumaru

Last reported at 2014-Oct-23 14:32 UTC. Time now 2014-Oct-23 19:14 UTC.
Position N 33°50' E 132°24'.

Length 165 m; draft 6.2 m.

Type: Cargo ship. MMSI: 431200688.

Date/timePositionNaut miles runAvg speedWind from/ knotsBaromVisibWave heightAir tempDewpointWater temp
2014-Oct-23 14:32N 33°50' E 132°24'1515.0
2014-Oct-23 13:33N 34°05' E 132°24'1616.5
2014-Oct-23 12:33N 34°21' E 132°22'0 0.1
2014-Oct-23 11:32N 34°21' E 132°22'0 0.0
2014-Oct-23 10:32N 34°21' E 132°22'0 0.0
2014-Oct-23 09:32N 34°21' E 132°22'0 0.1
2014-Oct-23 08:34N 34°21' E 132°22'  
2014-Oct-19 14:32N 33°48' E 132°21'1616.0
2014-Oct-19 13:34N 34°02' E 132°27'1817.6
2014-Oct-19 12:34N 34°19' E 132°22'2 1.8
2014-Oct-19 11:31N 34°21' E 132°22'0 0.0
2014-Oct-19 10:28N 34°21' E 132°22'0 0.0
2014-Oct-19 09:32N 34°21' E 132°22'1111.3
2014-Oct-19 08:34N 34°10' E 132°21'12511.3
2014-Oct-18 21:33N 34°34' E 134°49'1414.3
2014-Oct-18 20:33N 34°29' E 135°05'2020.4
2014-Oct-18 19:33N 34°09' E 134°59'  
2014-Oct-15 10:08N 33°51' E 132°26'1117.4
2014-Oct-15 09:30N 34°01' E 132°29'1717.8
2014-Oct-15 08:33N 34°17' E 132°21'4 3.9
2014-Oct-15 07:28N 34°21' E 132°22'0 0.0
2014-Oct-15 06:28N 34°21' E 132°22'0 0.0
2014-Oct-15 05:16N 34°21' E 132°22'1 1.7
2014-Oct-15 04:31N 34°20' E 132°22'0 0.0
2014-Oct-15 03:34N 34°20' E 132°22'1211.9
2014-Oct-15 02:33N 34°08' E 132°23'  
Track history (hours):
 
Tides and Currents Weather Stations Pressure Air Temp Water Temp Dewpoint Dewpoint Depression Visibility Wind Speed Wind Dir Waves Ship Positions

Toyofukumaru

Last reported at 2014-Oct-23 14:32 UTC. Time now 2014-Oct-23 19:14 UTC.
Position N 33°50' E 132°24'.

Length 165 m; draft 6.2 m.

Type: Cargo ship. MMSI: 431200688.

Date/timePositionNaut miles runAvg speedWind from/ knotsBaromVisibWave heightAir tempDewpointWater temp
2014-Oct-23 14:32N 33°50' E 132°24'1515.0
2014-Oct-23 13:33N 34°05' E 132°24'1616.5
2014-Oct-23 12:33N 34°21' E 132°22'0 0.1
2014-Oct-23 11:32N 34°21' E 132°22'0 0.0
2014-Oct-23 10:32N 34°21' E 132°22'0 0.0
2014-Oct-23 09:32N 34°21' E 132°22'0 0.1
2014-Oct-23 08:34N 34°21' E 132°22'  
2014-Oct-19 14:32N 33°48' E 132°21'1616.0
2014-Oct-19 13:34N 34°02' E 132°27'1817.6
2014-Oct-19 12:34N 34°19' E 132°22'2 1.8
2014-Oct-19 11:31N 34°21' E 132°22'0 0.0
2014-Oct-19 10:28N 34°21' E 132°22'0 0.0
2014-Oct-19 09:32N 34°21' E 132°22'1111.3
2014-Oct-19 08:34N 34°10' E 132°21'12511.3
2014-Oct-18 21:33N 34°34' E 134°49'1414.3
2014-Oct-18 20:33N 34°29' E 135°05'2020.4
2014-Oct-18 19:33N 34°09' E 134°59'  
2014-Oct-15 10:08N 33°51' E 132°26'1117.4
2014-Oct-15 09:30N 34°01' E 132°29'1717.8
2014-Oct-15 08:33N 34°17' E 132°21'4 3.9
2014-Oct-15 07:28N 34°21' E 132°22'0 0.0
2014-Oct-15 06:28N 34°21' E 132°22'0 0.0
2014-Oct-15 05:16N 34°21' E 132°22'1 1.7
2014-Oct-15 04:31N 34°20' E 132°22'0 0.0
2014-Oct-15 03:34N 34°20' E 132°22'1211.9
2014-Oct-15 02:33N 34°08' E 132°23'  

Dump ship's entire track history